createdAt,value
2017-12-14T00:00:47.916Z,6.90
2017-12-14T00:03:16.076Z,6.80
2017-12-14T00:05:44.225Z,6.80
2017-12-14T00:08:12.371Z,6.80
2017-12-14T00:10:41.292Z,6.80
2017-12-14T00:13:10.209Z,6.90
2017-12-14T00:15:38.342Z,6.90
2017-12-14T00:18:06.505Z,6.80
2017-12-14T00:20:35.404Z,6.90
2017-12-14T00:23:03.539Z,6.80
2017-12-14T00:25:32.437Z,7.00
2017-12-14T00:28:01.368Z,6.90
2017-12-14T00:30:29.490Z,6.90
2017-12-14T00:32:57.642Z,6.90
2017-12-14T00:35:25.774Z,6.90
2017-12-14T00:37:53.926Z,6.90
2017-12-14T00:40:22.066Z,6.90
2017-12-14T00:42:50.962Z,6.80
2017-12-14T00:45:19.110Z,6.80
2017-12-14T00:47:47.238Z,6.80
2017-12-14T00:50:16.150Z,6.80
2017-12-14T00:52:45.078Z,6.90
2017-12-14T00:55:13.212Z,6.80
2017-12-14T00:57:41.344Z,6.90
2017-12-14T01:00:09.478Z,6.90
2017-12-14T01:02:37.623Z,6.90
2017-12-14T01:05:05.775Z,6.90
2017-12-14T01:07:33.910Z,6.90
2017-12-14T01:10:02.059Z,6.90
2017-12-14T01:12:30.961Z,6.90
2017-12-14T01:14:59.866Z,6.90
2017-12-14T01:17:28.801Z,6.90
2017-12-14T01:19:56.922Z,6.90
2017-12-14T01:22:25.050Z,6.90
2017-12-14T01:24:54.180Z,6.90
2017-12-14T01:27:22.309Z,6.90
2017-12-14T01:29:51.965Z,6.80
2017-12-14T01:32:20.127Z,6.80
2017-12-14T01:34:48.250Z,6.80
2017-12-14T01:37:16.390Z,6.80
2017-12-14T01:39:44.540Z,6.80
2017-12-14T01:42:12.675Z,6.80
2017-12-14T01:44:40.793Z,6.90
2017-12-14T01:47:08.956Z,6.90
2017-12-14T01:49:39.833Z,7.00
2017-12-14T01:52:07.984Z,7.00
2017-12-14T01:54:36.891Z,7.10
2017-12-14T01:57:05.796Z,7.10
2017-12-14T01:59:34.720Z,7.20
2017-12-14T02:02:02.858Z,7.20
2017-12-14T02:04:30.991Z,7.20
2017-12-14T02:06:59.895Z,7.10
2017-12-14T02:09:28.057Z,7.10
2017-12-14T02:11:56.185Z,7.10
2017-12-14T02:14:24.312Z,7.10
2017-12-14T02:16:52.445Z,7.10
2017-12-14T02:19:20.572Z,7.00
2017-12-14T02:21:50.517Z,7.10
2017-12-14T02:24:18.648Z,7.10
2017-12-14T02:26:46.785Z,7.10
2017-12-14T02:29:14.924Z,7.10
2017-12-14T02:31:43.054Z,7.10
2017-12-14T02:34:11.193Z,7.10
2017-12-14T02:36:39.381Z,7.10
2017-12-14T02:39:07.510Z,7.10
2017-12-14T02:41:35.663Z,7.00
2017-12-14T02:44:03.788Z,7.10
2017-12-14T02:46:31.919Z,7.00
2017-12-14T02:49:00.052Z,7.10
2017-12-14T02:51:28.181Z,7.10
2017-12-14T02:53:57.065Z,7.20
2017-12-14T02:56:26.857Z,7.10
2017-12-14T02:58:55.745Z,7.10
2017-12-14T03:01:23.888Z,7.10
2017-12-14T03:03:52.788Z,7.10
2017-12-14T03:06:20.961Z,7.10
2017-12-14T03:08:49.878Z,7.10
2017-12-14T03:11:18.792Z,7.20
2017-12-14T03:13:46.918Z,7.20
2017-12-14T03:16:15.077Z,7.20
2017-12-14T03:18:43.172Z,7.20
2017-12-14T03:21:11.324Z,7.20
2017-12-14T03:23:39.454Z,7.20
2017-12-14T03:26:08.412Z,7.30
2017-12-14T03:28:37.328Z,7.30
2017-12-14T03:31:05.466Z,7.30
2017-12-14T03:33:33.635Z,7.20
2017-12-14T03:36:01.771Z,7.30
2017-12-14T03:38:30.672Z,7.30
2017-12-14T03:40:59.568Z,7.40
2017-12-14T03:43:28.482Z,7.20
2017-12-14T03:45:57.372Z,7.10
2017-12-14T03:48:25.528Z,7.10
2017-12-14T03:50:53.658Z,7.00
2017-12-14T03:53:22.597Z,6.60
2017-12-14T03:55:50.713Z,6.60
2017-12-14T03:58:18.863Z,6.50
2017-12-14T04:00:47.029Z,6.30
2017-12-14T04:03:15.151Z,6.20
2017-12-14T04:05:44.065Z,6.10
2017-12-14T04:08:12.192Z,6.10
2017-12-14T04:10:41.098Z,6.00
2017-12-14T04:13:10.020Z,6.00
2017-12-14T04:15:38.169Z,5.90
2017-12-14T04:18:06.304Z,5.90
2017-12-14T04:20:34.444Z,6.00
2017-12-14T04:23:02.594Z,6.00
2017-12-14T04:25:30.725Z,6.00
2017-12-14T04:28:00.606Z,6.10
2017-12-14T04:30:28.742Z,6.10
2017-12-14T04:32:57.649Z,6.10
2017-12-14T04:35:26.561Z,6.10
2017-12-14T04:37:54.697Z,6.10
2017-12-14T04:40:22.833Z,6.10
2017-12-14T04:42:50.961Z,6.00
2017-12-14T04:45:19.088Z,6.00
2017-12-14T04:47:47.997Z,6.00
2017-12-14T04:50:16.865Z,6.00
2017-12-14T04:52:45.004Z,6.00
2017-12-14T04:55:13.139Z,6.00
2017-12-14T04:57:41.264Z,6.00
2017-12-14T05:00:10.183Z,5.90
2017-12-14T05:02:38.308Z,5.90
2017-12-14T05:05:06.499Z,5.90
2017-12-14T05:07:34.646Z,5.90
2017-12-14T05:10:02.785Z,5.90
2017-12-14T05:12:30.913Z,5.90
2017-12-14T05:14:59.048Z,5.90
2017-12-14T05:17:27.185Z,5.80
2017-12-14T05:19:55.346Z,5.80
2017-12-14T05:22:24.221Z,5.80
2017-12-14T05:24:52.377Z,5.80
2017-12-14T05:27:20.497Z,5.80
2017-12-14T05:29:48.662Z,5.70
2017-12-14T05:32:16.792Z,5.70
2017-12-14T05:34:45.690Z,5.70
2017-12-14T05:37:14.600Z,5.60
2017-12-14T05:39:44.797Z,5.60
2017-12-14T05:42:14.453Z,5.50
2017-12-14T05:44:43.350Z,5.50
2017-12-14T05:47:12.260Z,5.50
2017-12-14T05:49:41.157Z,5.50
2017-12-14T05:52:10.073Z,5.50
2017-12-14T05:54:38.970Z,5.40
2017-12-14T05:57:07.877Z,5.50
2017-12-14T05:59:36.781Z,5.40
2017-12-14T06:02:05.687Z,5.30
2017-12-14T06:04:34.596Z,5.30
2017-12-14T06:07:02.725Z,5.30
2017-12-14T06:09:30.881Z,5.30
2017-12-14T06:11:59.005Z,5.40
2017-12-14T06:14:27.162Z,5.40
2017-12-14T06:16:55.289Z,5.40
2017-12-14T06:19:24.982Z,5.30
2017-12-14T06:21:53.862Z,5.30
2017-12-14T06:24:22.016Z,5.30
2017-12-14T06:26:50.132Z,5.30
2017-12-14T06:29:19.087Z,5.30
2017-12-14T06:31:47.212Z,5.30
2017-12-14T06:34:15.344Z,5.40
2017-12-14T06:36:43.466Z,5.40
2017-12-14T06:39:12.371Z,5.30
2017-12-14T06:41:41.281Z,5.20
2017-12-14T06:44:10.185Z,5.20
2017-12-14T06:46:39.110Z,5.20
2017-12-14T06:49:07.246Z,5.20
2017-12-14T06:51:35.390Z,5.20
2017-12-14T06:54:03.518Z,5.20
2017-12-14T06:56:31.679Z,5.30
2017-12-14T06:59:01.461Z,5.20
2017-12-14T07:01:30.364Z,5.20
2017-12-14T07:03:59.279Z,5.20
2017-12-14T07:06:27.524Z,5.20
2017-12-14T07:08:55.693Z,5.30
2017-12-14T07:11:23.846Z,5.20
2017-12-14T07:13:51.995Z,5.30
2017-12-14T07:16:20.191Z,5.30
2017-12-14T07:18:48.314Z,5.30
2017-12-14T07:21:16.435Z,5.30
2017-12-14T07:23:44.603Z,5.30
2017-12-14T07:26:12.737Z,5.30
2017-12-14T07:28:41.633Z,5.30
2017-12-14T07:31:09.792Z,5.30
2017-12-14T07:33:39.306Z,5.30
2017-12-14T07:36:07.494Z,5.20
2017-12-14T07:38:35.614Z,5.30
2017-12-14T07:41:04.528Z,5.30
2017-12-14T07:43:33.408Z,5.20
2017-12-14T07:46:13.465Z,5.20
2017-12-14T07:48:53.869Z,5.30
2017-12-14T07:51:22.959Z,5.20
2017-12-14T07:53:51.855Z,5.20
2017-12-14T07:56:19.998Z,5.20
2017-12-14T07:58:48.168Z,5.20
2017-12-14T08:01:17.164Z,5.20
2017-12-14T08:03:46.052Z,5.40
2017-12-14T08:06:14.962Z,5.40
2017-12-14T08:08:43.852Z,5.40
2017-12-14T08:11:12.761Z,5.50
2017-12-14T08:13:41.665Z,5.50
2017-12-14T08:16:10.576Z,5.40
2017-12-14T08:18:42.105Z,5.40
2017-12-14T08:21:10.241Z,5.40
2017-12-14T08:23:38.386Z,5.50
2017-12-14T08:26:06.517Z,5.50
2017-12-14T08:28:34.649Z,5.50
2017-12-14T08:31:02.788Z,5.50
2017-12-14T08:33:31.700Z,5.50
2017-12-14T08:35:59.834Z,5.50
2017-12-14T08:38:27.973Z,5.50
2017-12-14T08:40:56.112Z,5.50
2017-12-14T08:43:24.257Z,5.60
2017-12-14T08:45:52.844Z,5.60
2017-12-14T08:48:20.983Z,5.60
2017-12-14T08:50:49.145Z,5.60
2017-12-14T08:53:17.281Z,5.60
2017-12-14T08:55:45.417Z,5.70
2017-12-14T08:58:13.560Z,5.70
2017-12-14T09:00:41.705Z,5.70
2017-12-14T09:03:09.851Z,5.70
2017-12-14T09:05:37.972Z,5.80
2017-12-14T09:08:06.108Z,5.70
2017-12-14T09:10:34.246Z,5.70
2017-12-14T09:13:02.396Z,5.80
2017-12-14T09:15:30.537Z,5.70
2017-12-14T09:17:58.687Z,5.80
2017-12-14T09:20:26.817Z,5.80
2017-12-14T09:22:55.745Z,5.80
2017-12-14T09:25:23.875Z,5.80
2017-12-14T09:27:52.018Z,5.90
2017-12-14T09:30:20.168Z,5.80
2017-12-14T09:32:48.306Z,5.90
2017-12-14T09:35:16.449Z,6.00
2017-12-14T09:37:45.336Z,6.00
2017-12-14T09:40:14.981Z,6.00
2017-12-14T09:42:43.105Z,6.00
2017-12-14T09:45:11.818Z,6.00
2017-12-14T09:47:39.948Z,6.10
2017-12-14T09:50:08.857Z,6.00
2017-12-14T09:52:36.993Z,6.00
2017-12-14T09:55:05.153Z,6.10
2017-12-14T09:57:33.278Z,6.20
2017-12-14T10:00:01.453Z,6.20
2017-12-14T10:02:29.607Z,6.30
2017-12-14T10:04:57.763Z,6.30
2017-12-14T10:07:26.660Z,6.40
2017-12-14T10:09:55.587Z,6.30
2017-12-14T10:12:23.737Z,6.30
2017-12-14T10:14:51.884Z,6.30
2017-12-14T10:17:20.014Z,6.30
2017-12-14T10:19:48.905Z,6.30
2017-12-14T10:22:17.036Z,6.30
2017-12-14T10:24:45.187Z,6.40
2017-12-14T10:27:13.316Z,6.40
2017-12-14T10:29:41.477Z,6.50
2017-12-14T10:32:10.369Z,6.60
2017-12-14T10:34:38.507Z,6.70
2017-12-14T10:37:06.636Z,6.70
2017-12-14T10:39:35.585Z,6.80
2017-12-14T10:42:03.731Z,6.80
2017-12-14T10:44:32.628Z,6.70
2017-12-14T10:47:01.553Z,6.70
2017-12-14T10:49:30.466Z,6.70
2017-12-14T10:51:58.617Z,6.70
2017-12-14T10:54:26.738Z,6.80
2017-12-14T10:56:54.902Z,6.90
2017-12-14T10:59:23.053Z,6.80
2017-12-14T11:01:51.227Z,6.80
2017-12-14T11:04:19.356Z,6.90
2017-12-14T11:06:48.331Z,6.90
2017-12-14T11:09:16.454Z,6.90
2017-12-14T11:11:45.380Z,7.00
2017-12-14T11:14:13.508Z,7.00
2017-12-14T11:16:41.676Z,7.00
2017-12-14T11:19:09.798Z,7.00
2017-12-14T11:21:37.964Z,6.90
2017-12-14T11:24:06.865Z,7.00
2017-12-14T11:26:35.769Z,7.00
2017-12-14T11:29:03.892Z,7.10
2017-12-14T11:31:32.821Z,7.00
2017-12-14T11:34:00.960Z,7.00
2017-12-14T11:36:29.201Z,7.00
2017-12-14T11:38:57.338Z,7.10
2017-12-14T11:41:25.475Z,7.10
2017-12-14T11:43:53.653Z,7.00
2017-12-14T11:46:21.769Z,7.00
2017-12-14T11:48:49.935Z,7.00
2017-12-14T11:51:18.058Z,7.00
2017-12-14T11:53:46.977Z,7.00
2017-12-14T11:56:15.107Z,7.00
2017-12-14T11:58:43.253Z,7.00
2017-12-14T12:01:12.148Z,7.00
2017-12-14T12:03:40.299Z,7.00
2017-12-14T12:06:08.699Z,7.10
2017-12-14T12:08:36.888Z,7.10
2017-12-14T12:11:05.004Z,7.10
2017-12-14T12:13:34.084Z,7.20
2017-12-14T12:16:02.222Z,7.20
2017-12-14T12:18:30.373Z,7.20
2017-12-14T12:20:58.529Z,7.30
2017-12-14T12:23:26.649Z,7.10
2017-12-14T12:25:54.813Z,7.00
2017-12-14T12:28:22.940Z,7.10
2017-12-14T12:30:51.852Z,7.10
2017-12-14T12:33:20.744Z,7.10
2017-12-14T12:35:50.609Z,7.00
2017-12-14T12:38:18.727Z,7.00
2017-12-14T12:40:48.385Z,6.90
2017-12-14T12:43:17.317Z,7.00
2017-12-14T12:45:46.114Z,7.00
2017-12-14T12:48:14.284Z,7.00
2017-12-14T12:50:42.394Z,7.00
2017-12-14T12:53:10.513Z,7.10
2017-12-14T12:55:39.294Z,7.10
2017-12-14T12:58:07.436Z,7.10
2017-12-14T13:00:37.192Z,7.10
2017-12-14T13:03:05.321Z,7.10
2017-12-14T13:05:33.454Z,7.00
2017-12-14T13:08:01.609Z,7.10
2017-12-14T13:10:29.738Z,7.10
2017-12-14T13:12:57.902Z,7.10
2017-12-14T13:15:26.018Z,7.10
2017-12-14T13:17:55.111Z,7.20
2017-12-14T13:20:24.512Z,7.20
2017-12-14T13:22:52.677Z,7.20
2017-12-14T13:25:20.794Z,7.20
2017-12-14T13:27:48.960Z,7.20
2017-12-14T13:30:17.881Z,7.10
2017-12-14T13:32:46.000Z,7.10
2017-12-14T13:35:14.139Z,7.10
2017-12-14T13:37:42.268Z,7.20
2017-12-14T13:40:11.352Z,7.20
2017-12-14T13:42:39.487Z,7.20
2017-12-14T13:45:07.639Z,7.30
2017-12-14T13:47:35.774Z,7.30
2017-12-14T13:50:03.902Z,7.40
2017-12-14T13:52:32.046Z,7.40
2017-12-14T13:55:00.930Z,7.30
2017-12-14T13:57:29.082Z,7.30
2017-12-14T13:59:57.312Z,7.40
2017-12-14T14:02:25.412Z,7.40
2017-12-14T14:04:54.354Z,7.40
2017-12-14T14:07:22.519Z,7.40
2017-12-14T14:09:51.417Z,7.50
2017-12-14T14:12:19.572Z,7.50
2017-12-14T14:14:47.708Z,7.50
2017-12-14T14:17:15.843Z,7.50
2017-12-14T14:19:43.982Z,7.50
2017-12-14T14:22:12.115Z,7.50
2017-12-14T14:24:40.253Z,7.40
2017-12-14T14:27:08.395Z,7.40
2017-12-14T14:29:37.308Z,7.40
2017-12-14T14:32:06.196Z,7.40
2017-12-14T14:34:34.389Z,7.40
2017-12-14T14:37:02.505Z,7.50
2017-12-14T14:39:30.663Z,7.50
2017-12-14T14:41:59.574Z,7.50
2017-12-14T14:44:28.502Z,7.50
2017-12-14T14:46:56.706Z,7.50
2017-12-14T14:49:24.847Z,7.50
2017-12-14T14:51:52.975Z,7.50
2017-12-14T14:54:21.112Z,7.40
2017-12-14T14:56:49.259Z,7.40
2017-12-14T14:59:17.408Z,7.40
2017-12-14T15:01:45.553Z,7.40
2017-12-14T15:04:13.690Z,7.20
2017-12-14T15:06:41.959Z,7.10
2017-12-14T15:09:10.918Z,6.90
2017-12-14T15:11:39.247Z,6.90
2017-12-14T15:14:07.714Z,7.00
2017-12-14T15:16:36.908Z,6.80
2017-12-14T15:19:05.394Z,6.80
2017-12-14T15:21:33.830Z,6.90
2017-12-14T15:24:02.279Z,6.80
2017-12-14T15:26:30.742Z,6.80
2017-12-14T15:28:59.194Z,6.80
2017-12-14T15:31:27.683Z,6.90
2017-12-14T15:33:58.858Z,6.80
2017-12-14T15:36:27.862Z,6.90
2017-12-14T15:38:56.034Z,6.90
2017-12-14T15:41:24.186Z,6.90
2017-12-14T15:43:53.093Z,7.00
2017-12-14T15:46:21.268Z,6.90
2017-12-14T15:48:49.389Z,7.00
2017-12-14T15:51:17.547Z,7.00
2017-12-14T15:53:45.664Z,7.10
2017-12-14T15:56:13.795Z,7.00
2017-12-14T15:58:41.939Z,6.90
2017-12-14T16:01:10.174Z,6.70
2017-12-14T16:03:39.862Z,6.60
2017-12-14T16:06:07.989Z,6.50
2017-12-14T16:08:36.126Z,6.40
2017-12-14T16:11:04.735Z,6.30
2017-12-14T16:13:32.869Z,6.30
2017-12-14T16:16:01.780Z,6.20
2017-12-14T16:18:29.940Z,6.20
2017-12-14T16:20:58.075Z,6.10
2017-12-14T16:23:26.232Z,6.10
2017-12-14T16:25:54.385Z,6.10
2017-12-14T16:28:23.273Z,6.20
2017-12-14T16:30:51.417Z,6.20
2017-12-14T16:33:19.549Z,6.20
2017-12-14T16:35:48.451Z,6.10
2017-12-14T16:38:17.396Z,6.10
2017-12-14T16:40:45.525Z,6.10
2017-12-14T16:43:13.683Z,6.10
2017-12-14T16:45:41.822Z,6.00
2017-12-14T16:48:10.734Z,6.00
2017-12-14T16:50:38.896Z,6.00
2017-12-14T16:53:07.062Z,6.10
2017-12-14T16:55:36.201Z,5.90
2017-12-14T16:58:04.364Z,6.00
2017-12-14T17:00:33.274Z,6.00
2017-12-14T17:03:02.588Z,6.00
2017-12-14T17:05:30.738Z,6.00
2017-12-14T17:07:58.878Z,6.00
2017-12-14T17:10:27.799Z,6.10
2017-12-14T17:12:56.726Z,6.00
2017-12-14T17:15:24.875Z,6.00
2017-12-14T17:17:53.778Z,5.70
2017-12-14T17:20:23.120Z,5.60
2017-12-14T17:22:51.292Z,5.60
2017-12-14T17:25:20.779Z,5.40
2017-12-14T17:27:50.473Z,5.40
2017-12-14T17:30:18.647Z,5.40
2017-12-14T17:32:46.801Z,5.40
2017-12-14T17:35:15.696Z,5.20
2017-12-14T17:37:44.626Z,5.20
2017-12-14T17:40:12.792Z,5.20
2017-12-14T17:42:41.684Z,5.10
2017-12-14T17:45:10.603Z,5.10
2017-12-14T17:47:39.501Z,5.20
2017-12-14T17:50:07.679Z,5.20
2017-12-14T17:52:35.821Z,5.00
2017-12-14T17:55:03.965Z,5.00
2017-12-14T17:57:32.892Z,5.00
2017-12-14T18:00:01.015Z,5.10
2017-12-14T18:02:29.175Z,5.10
2017-12-14T18:04:58.117Z,4.90
2017-12-14T18:07:26.276Z,4.90
2017-12-14T18:09:54.401Z,4.70
2017-12-14T18:12:23.341Z,4.80
2017-12-14T18:14:51.471Z,4.80
2017-12-14T18:17:19.689Z,4.60
2017-12-14T18:19:48.588Z,4.80
2017-12-14T18:22:17.509Z,4.70
2017-12-14T18:24:45.676Z,4.70
2017-12-14T18:27:13.811Z,4.70
2017-12-14T18:29:41.967Z,4.80
2017-12-14T18:32:10.912Z,4.90
2017-12-14T18:34:39.037Z,4.90
2017-12-14T18:37:07.955Z,5.10
2017-12-14T18:39:36.867Z,5.20
2017-12-14T18:42:05.013Z,5.10
2017-12-14T18:44:33.257Z,5.10
2017-12-14T18:47:01.381Z,5.30
2017-12-14T18:49:29.526Z,5.30
2017-12-14T18:51:57.695Z,5.50
2017-12-14T18:54:26.645Z,5.60
2017-12-14T18:56:54.776Z,5.60
2017-12-14T18:59:23.687Z,5.60
2017-12-14T19:01:51.833Z,5.60
2017-12-14T19:04:19.993Z,5.50
2017-12-14T19:06:48.225Z,5.30
2017-12-14T19:09:16.385Z,5.30
2017-12-14T19:11:44.527Z,5.40
2017-12-14T19:14:13.256Z,5.30
2017-12-14T19:16:41.611Z,5.10
2017-12-14T19:19:10.527Z,5.20
2017-12-14T19:21:38.702Z,5.10
2017-12-14T19:24:07.602Z,5.10
2017-12-14T19:26:37.450Z,5.20
2017-12-14T19:29:05.838Z,5.20
2017-12-14T19:31:33.987Z,5.10
2017-12-14T19:34:02.152Z,5.20
2017-12-14T19:36:30.286Z,5.20
2017-12-14T19:38:58.459Z,5.30
2017-12-14T19:41:28.315Z,5.50
2017-12-14T19:43:56.783Z,5.50
2017-12-14T19:46:25.701Z,5.50
2017-12-14T19:48:53.839Z,5.50
2017-12-14T19:51:22.979Z,5.50
2017-12-14T19:53:51.919Z,5.30
2017-12-14T19:56:20.069Z,5.40
2017-12-14T19:58:48.828Z,5.40
2017-12-14T20:01:16.962Z,5.30
2017-12-14T20:03:45.887Z,5.10
2017-12-14T20:06:14.046Z,5.10
2017-12-14T20:08:43.017Z,5.40
2017-12-14T20:11:11.166Z,5.40
2017-12-14T20:13:39.324Z,5.50
2017-12-14T20:16:08.808Z,5.60
2017-12-14T20:18:36.914Z,5.60
2017-12-14T20:21:05.819Z,5.70
2017-12-14T20:23:34.738Z,5.80
2017-12-14T20:26:02.909Z,5.80
2017-12-14T20:28:31.863Z,5.70
2017-12-14T20:31:00.940Z,5.60
2017-12-14T20:33:29.836Z,5.70
2017-12-14T20:35:58.015Z,5.70
2017-12-14T20:38:26.134Z,5.80
2017-12-14T20:40:54.328Z,5.70
2017-12-14T20:43:23.348Z,5.70
2017-12-14T20:45:52.292Z,5.80
2017-12-14T20:48:20.553Z,5.80
2017-12-14T20:50:48.698Z,5.90
2017-12-14T20:53:16.862Z,5.90
2017-12-14T20:55:45.747Z,6.00
2017-12-14T20:58:13.909Z,6.00
2017-12-14T21:00:43.392Z,6.10
2017-12-14T21:03:11.533Z,6.00
2017-12-14T21:05:39.677Z,5.90
2017-12-14T21:08:07.856Z,6.00
2017-12-14T21:10:36.014Z,6.10
2017-12-14T21:13:04.899Z,6.10
2017-12-14T21:15:33.588Z,6.10
2017-12-14T21:18:01.727Z,6.10
2017-12-14T21:20:29.849Z,6.10
2017-12-14T21:22:58.154Z,6.10
2017-12-14T21:25:26.335Z,5.90
2017-12-14T21:27:55.213Z,5.90
2017-12-14T21:30:23.369Z,5.90
2017-12-14T21:32:52.110Z,6.00
2017-12-14T21:35:20.273Z,6.10
2017-12-14T21:37:48.399Z,6.10
2017-12-14T21:40:16.546Z,6.20
2017-12-14T21:42:44.694Z,6.20
2017-12-14T21:45:14.579Z,6.20
2017-12-14T21:47:42.742Z,6.20
2017-12-14T21:50:10.865Z,6.20
2017-12-14T21:52:39.010Z,6.10
2017-12-14T21:55:07.192Z,6.10
2017-12-14T21:57:35.317Z,6.20
2017-12-14T22:00:03.476Z,6.20
2017-12-14T22:02:31.618Z,6.20
2017-12-14T22:05:00.526Z,6.20
2017-12-14T22:07:29.432Z,6.20
2017-12-14T22:09:58.338Z,6.20
2017-12-14T22:12:26.481Z,6.20
2017-12-14T22:14:54.826Z,6.10
2017-12-14T22:17:23.545Z,6.10
2017-12-14T22:19:53.421Z,6.10
2017-12-14T22:22:23.273Z,6.20
2017-12-14T22:24:52.521Z,6.20
2017-12-14T22:27:20.994Z,6.20
2017-12-14T22:29:49.893Z,6.00
2017-12-14T22:32:18.105Z,6.00
2017-12-14T22:34:46.241Z,6.10
2017-12-14T22:37:15.158Z,6.20
2017-12-14T22:39:43.285Z,6.20
2017-12-14T22:42:11.457Z,6.20
2017-12-14T22:44:39.576Z,6.10
2017-12-14T22:47:07.729Z,6.20
2017-12-14T22:49:35.876Z,6.30
2017-12-14T22:52:04.025Z,6.30
2017-12-14T22:54:33.085Z,6.20
2017-12-14T22:57:01.893Z,6.20
2017-12-14T22:59:30.053Z,6.20
2017-12-14T23:01:58.954Z,6.30
2017-12-14T23:04:27.846Z,6.20
2017-12-14T23:06:56.005Z,6.20
2017-12-14T23:09:24.136Z,6.20
2017-12-14T23:11:53.156Z,6.30
2017-12-14T23:14:22.041Z,6.40
2017-12-14T23:16:50.971Z,6.30
2017-12-14T23:19:19.855Z,6.30
2017-12-14T23:21:49.708Z,6.30
2017-12-14T23:24:17.846Z,6.30
2017-12-14T23:26:45.981Z,6.40
2017-12-14T23:29:14.205Z,6.30
2017-12-14T23:31:42.361Z,6.40
2017-12-14T23:34:11.512Z,6.40
2017-12-14T23:36:39.706Z,6.40
2017-12-14T23:39:07.850Z,6.40
2017-12-14T23:41:35.973Z,6.40
2017-12-14T23:44:05.024Z,6.40
2017-12-14T23:46:33.928Z,6.50
2017-12-14T23:49:02.078Z,6.50
2017-12-14T23:51:30.980Z,6.50
2017-12-14T23:53:59.110Z,6.50
2017-12-14T23:56:27.230Z,6.50
2017-12-14T23:58:55.368Z,6.40
